sensor_id;sensor_type;location;lat;lon;timestamp;temperature;humidity
26254;DHT22;53339;51.378;0.094;2022-12-05T00:03:51;4.10;88.10
26254;DHT22;53339;51.378;0.094;2022-12-05T00:06:21;4.20;88.20
26254;DHT22;53339;51.378;0.094;2022-12-05T00:08:49;4.20;88.10
26254;DHT22;53339;51.378;0.094;2022-12-05T00:11:19;4.10;88.00
26254;DHT22;53339;51.378;0.094;2022-12-05T00:13:48;4.20;88.30
26254;DHT22;53339;51.378;0.094;2022-12-05T00:16:18;4.20;88.40
26254;DHT22;53339;51.378;0.094;2022-12-05T00:18:46;4.20;88.20
26254;DHT22;53339;51.378;0.094;2022-12-05T00:21:24;4.20;88.10
26254;DHT22;53339;51.378;0.094;2022-12-05T00:23:53;4.20;88.40
26254;DHT22;53339;51.378;0.094;2022-12-05T00:26:22;4.20;88.50
26254;DHT22;53339;51.378;0.094;2022-12-05T00:28:50;4.20;88.30
26254;DHT22;53339;51.378;0.094;2022-12-05T00:31:20;4.20;88.10
26254;DHT22;53339;51.378;0.094;2022-12-05T00:33:48;4.20;88.40
26254;DHT22;53339;51.378;0.094;2022-12-05T00:36:22;4.30;88.50
26254;DHT22;53339;51.378;0.094;2022-12-05T00:38:51;4.30;88.30
26254;DHT22;53339;51.378;0.094;2022-12-05T00:41:24;4.30;88.20
26254;DHT22;53339;51.378;0.094;2022-12-05T00:43:52;4.30;88.40
26254;DHT22;53339;51.378;0.094;2022-12-05T00:46:22;4.30;88.50
26254;DHT22;53339;51.378;0.094;2022-12-05T00:48:52;4.40;88.30
26254;DHT22;53339;51.378;0.094;2022-12-05T00:51:23;4.30;88.20
26254;DHT22;53339;51.378;0.094;2022-12-05T00:53:50;4.30;88.50
26254;DHT22;53339;51.378;0.094;2022-12-05T00:56:22;4.40;88.60
26254;DHT22;53339;51.378;0.094;2022-12-05T00:58:51;4.30;88.40
26254;DHT22;53339;51.378;0.094;2022-12-05T01:01:26;4.30;88.30
26254;DHT22;53339;51.378;0.094;2022-12-05T01:03:56;4.30;88.60
26254;DHT22;53339;51.378;0.094;2022-12-05T01:06:25;4.30;88.70
26254;DHT22;53339;51.378;0.094;2022-12-05T01:08:54;4.40;88.60
26254;DHT22;53339;51.378;0.094;2022-12-05T01:11:22;4.30;88.40
26254;DHT22;53339;51.378;0.094;2022-12-05T01:13:51;4.40;88.70
26254;DHT22;53339;51.378;0.094;2022-12-05T01:16:25;4.40;88.80
26254;DHT22;53339;51.378;0.094;2022-12-05T01:18:53;4.40;88.50
26254;DHT22;53339;51.378;0.094;2022-12-05T01:21:22;4.30;88.50
26254;DHT22;53339;51.378;0.094;2022-12-05T01:23:50;4.30;88.80
26254;DHT22;53339;51.378;0.094;2022-12-05T01:26:19;4.40;88.90
26254;DHT22;53339;51.378;0.094;2022-12-05T01:28:47;4.40;88.70
26254;DHT22;53339;51.378;0.094;2022-12-05T01:31:24;4.30;88.50
26254;DHT22;53339;51.378;0.094;2022-12-05T01:33:54;4.40;88.80
26254;DHT22;53339;51.378;0.094;2022-12-05T01:36:22;4.40;88.90
26254;DHT22;53339;51.378;0.094;2022-12-05T01:38:50;4.40;88.90
26254;DHT22;53339;51.378;0.094;2022-12-05T01:41:21;4.40;88.80
26254;DHT22;53339;51.378;0.094;2022-12-05T01:46:22;4.50;89.00
26254;DHT22;53339;51.378;0.094;2022-12-05T01:48:54;4.40;88.80
26254;DHT22;53339;51.378;0.094;2022-12-05T01:51:23;4.40;88.70
26254;DHT22;53339;51.378;0.094;2022-12-05T01:53:51;4.40;89.00
26254;DHT22;53339;51.378;0.094;2022-12-05T01:56:19;4.50;89.10
26254;DHT22;53339;51.378;0.094;2022-12-05T01:58:47;4.50;88.90
26254;DHT22;53339;51.378;0.094;2022-12-05T02:01:16;4.40;88.70
26254;DHT22;53339;51.378;0.094;2022-12-05T02:03:47;4.40;89.00
26254;DHT22;53339;51.378;0.094;2022-12-05T02:06:16;4.50;89.10
26254;DHT22;53339;51.378;0.094;2022-12-05T02:08:44;4.60;89.00
26254;DHT22;53339;51.378;0.094;2022-12-05T02:11:13;4.50;88.90
26254;DHT22;53339;51.378;0.094;2022-12-05T02:19:11;4.60;88.90
26254;DHT22;53339;51.378;0.094;2022-12-05T02:30:11;4.60;88.70
26254;DHT22;53339;51.378;0.094;2022-12-05T02:32:51;4.60;88.80
26254;DHT22;53339;51.378;0.094;2022-12-05T02:41:26;4.60;88.70
26254;DHT22;53339;51.378;0.094;2022-12-05T02:44:11;4.60;89.00
26254;DHT22;53339;51.378;0.094;2022-12-05T02:46:42;4.70;89.10
26254;DHT22;53339;51.378;0.094;2022-12-05T02:49:13;4.70;88.80
26254;DHT22;53339;51.378;0.094;2022-12-05T02:51:47;4.70;88.80
26254;DHT22;53339;51.378;0.094;2022-12-05T02:54:19;4.70;89.00
26254;DHT22;53339;51.378;0.094;2022-12-05T02:56:49;4.80;89.00
26254;DHT22;53339;51.378;0.094;2022-12-05T02:59:18;4.70;88.80
26254;DHT22;53339;51.378;0.094;2022-12-05T03:01:49;4.70;88.70
26254;DHT22;53339;51.378;0.094;2022-12-05T03:04:19;4.70;88.90
26254;DHT22;53339;51.378;0.094;2022-12-05T03:07:06;4.80;88.90
26254;DHT22;53339;51.378;0.094;2022-12-05T03:09:44;4.80;88.60
26254;DHT22;53339;51.378;0.094;2022-12-05T03:12:22;4.70;88.60
26254;DHT22;53339;51.378;0.094;2022-12-05T03:15:03;4.70;88.90
26254;DHT22;53339;51.378;0.094;2022-12-05T03:17:43;4.80;88.90
26254;DHT22;53339;51.378;0.094;2022-12-05T03:20:34;4.80;88.40
26254;DHT22;53339;51.378;0.094;2022-12-05T03:23:11;4.80;88.70
26254;DHT22;53339;51.378;0.094;2022-12-05T03:25:45;4.80;88.90
26254;DHT22;53339;51.378;0.094;2022-12-05T03:31:54;4.70;88.50
26254;DHT22;53339;51.378;0.094;2022-12-05T03:37:29;4.80;88.80
26254;DHT22;53339;51.378;0.094;2022-12-05T03:40:17;4.80;88.60
26254;DHT22;53339;51.378;0.094;2022-12-05T03:42:57;4.80;88.70
26254;DHT22;53339;51.378;0.094;2022-12-05T03:45:41;4.80;88.80
26254;DHT22;53339;51.378;0.094;2022-12-05T03:51:00;4.80;88.60
26254;DHT22;53339;51.378;0.094;2022-12-05T03:53:33;4.90;88.80
26254;DHT22;53339;51.378;0.094;2022-12-05T03:56:11;4.90;88.80
26254;DHT22;53339;51.378;0.094;2022-12-05T03:58:47;4.80;88.50
26254;DHT22;53339;51.378;0.094;2022-12-05T04:01:17;4.70;88.40
26254;DHT22;53339;51.378;0.094;2022-12-05T04:03:50;4.70;88.70
26254;DHT22;53339;51.378;0.094;2022-12-05T04:06:26;4.80;88.80
26254;DHT22;53339;51.378;0.094;2022-12-05T04:09:18;4.80;88.70
26254;DHT22;53339;51.378;0.094;2022-12-05T04:11:53;4.70;88.60
26254;DHT22;53339;51.378;0.094;2022-12-05T04:14:27;4.80;88.90
26254;DHT22;53339;51.378;0.094;2022-12-05T04:17:01;4.80;88.90
26254;DHT22;53339;51.378;0.094;2022-12-05T04:22:47;4.80;88.70
26254;DHT22;53339;51.378;0.094;2022-12-05T04:25:16;4.80;89.00
26254;DHT22;53339;51.378;0.094;2022-12-05T04:39:10;4.80;88.80
26254;DHT22;53339;51.378;0.094;2022-12-05T04:41:46;4.80;88.70
26254;DHT22;53339;51.378;0.094;2022-12-05T04:44:17;4.80;89.00
26254;DHT22;53339;51.378;0.094;2022-12-05T04:46:47;4.90;89.00
26254;DHT22;53339;51.378;0.094;2022-12-05T04:49:21;4.90;88.80
26254;DHT22;53339;51.378;0.094;2022-12-05T04:51:52;4.80;88.70
26254;DHT22;53339;51.378;0.094;2022-12-05T04:54:28;4.90;88.90
26254;DHT22;53339;51.378;0.094;2022-12-05T04:57:06;4.90;89.00
26254;DHT22;53339;51.378;0.094;2022-12-05T04:59:34;4.90;88.70
26254;DHT22;53339;51.378;0.094;2022-12-05T05:02:07;4.90;88.70
26254;DHT22;53339;51.378;0.094;2022-12-05T05:04:39;4.90;88.90
26254;DHT22;53339;51.378;0.094;2022-12-05T05:07:09;5.00;88.90
26254;DHT22;53339;51.378;0.094;2022-12-05T05:09:38;5.00;88.60
26254;DHT22;53339;51.378;0.094;2022-12-05T05:12:06;4.90;88.60
26254;DHT22;53339;51.378;0.094;2022-12-05T05:14:34;5.00;88.90
26254;DHT22;53339;51.378;0.094;2022-12-05T05:17:02;5.10;88.90
26254;DHT22;53339;51.378;0.094;2022-12-05T05:19:30;5.10;88.60
26254;DHT22;53339;51.378;0.094;2022-12-05T05:21:57;5.10;88.60
26254;DHT22;53339;51.378;0.094;2022-12-05T05:24:25;5.10;88.70
26254;DHT22;53339;51.378;0.094;2022-12-05T05:26:52;5.20;88.70
26254;DHT22;53339;51.378;0.094;2022-12-05T05:29:23;5.20;88.40
26254;DHT22;53339;51.378;0.094;2022-12-05T05:31:51;5.20;88.50
26254;DHT22;53339;51.378;0.094;2022-12-05T05:34:18;5.20;88.70
26254;DHT22;53339;51.378;0.094;2022-12-05T05:36:50;5.30;88.60
26254;DHT22;53339;51.378;0.094;2022-12-05T05:39:19;5.30;88.30
26254;DHT22;53339;51.378;0.094;2022-12-05T05:41:46;5.30;88.20
26254;DHT22;53339;51.378;0.094;2022-12-05T05:44:14;5.30;88.40
26254;DHT22;53339;51.378;0.094;2022-12-05T05:46:41;5.30;88.50
26254;DHT22;53339;51.378;0.094;2022-12-05T05:49:09;5.30;88.20
26254;DHT22;53339;51.378;0.094;2022-12-05T05:51:37;5.20;88.10
26254;DHT22;53339;51.378;0.094;2022-12-05T05:54:04;5.30;88.40
26254;DHT22;53339;51.378;0.094;2022-12-05T05:56:32;5.30;88.40
26254;DHT22;53339;51.378;0.094;2022-12-05T05:59:01;5.30;87.90
26254;DHT22;53339;51.378;0.094;2022-12-05T06:01:29;5.20;87.90
26254;DHT22;53339;51.378;0.094;2022-12-05T06:03:57;5.30;88.30
26254;DHT22;53339;51.378;0.094;2022-12-05T06:06:25;5.30;88.40
26254;DHT22;53339;51.378;0.094;2022-12-05T06:08:53;5.30;88.00
26254;DHT22;53339;51.378;0.094;2022-12-05T06:11:24;5.30;87.80
26254;DHT22;53339;51.378;0.094;2022-12-05T06:13:57;5.20;88.20
26254;DHT22;53339;51.378;0.094;2022-12-05T06:16:28;5.30;88.30
26254;DHT22;53339;51.378;0.094;2022-12-05T06:18:57;5.30;88.00
26254;DHT22;53339;51.378;0.094;2022-12-05T06:21:25;5.20;87.80
26254;DHT22;53339;51.378;0.094;2022-12-05T06:23:53;5.20;88.20
26254;DHT22;53339;51.378;0.094;2022-12-05T06:26:21;5.30;88.40
26254;DHT22;53339;51.378;0.094;2022-12-05T06:28:49;5.30;88.30
26254;DHT22;53339;51.378;0.094;2022-12-05T06:31:21;5.20;88.00
26254;DHT22;53339;51.378;0.094;2022-12-05T06:33:49;5.20;88.20
26254;DHT22;53339;51.378;0.094;2022-12-05T06:36:19;5.30;88.40
26254;DHT22;53339;51.378;0.094;2022-12-05T06:38:47;5.30;88.00
26254;DHT22;53339;51.378;0.094;2022-12-05T06:41:17;5.20;87.80
26254;DHT22;53339;51.378;0.094;2022-12-05T06:43:45;5.30;88.20
26254;DHT22;53339;51.378;0.094;2022-12-05T06:46:14;5.30;88.30
26254;DHT22;53339;51.378;0.094;2022-12-05T06:48:42;5.30;87.90
26254;DHT22;53339;51.378;0.094;2022-12-05T06:51:11;5.20;87.60
26254;DHT22;53339;51.378;0.094;2022-12-05T06:53:40;5.20;88.00
26254;DHT22;53339;51.378;0.094;2022-12-05T06:56:12;5.30;88.20
26254;DHT22;53339;51.378;0.094;2022-12-05T06:58:45;5.30;88.00
26254;DHT22;53339;51.378;0.094;2022-12-05T07:01:20;5.30;87.80
26254;DHT22;53339;51.378;0.094;2022-12-05T07:04:19;5.40;88.20
26254;DHT22;53339;51.378;0.094;2022-12-05T07:06:47;5.40;88.10
26254;DHT22;53339;51.378;0.094;2022-12-05T07:09:21;5.50;87.60
26254;DHT22;53339;51.378;0.094;2022-12-05T07:11:49;5.40;87.60
26254;DHT22;53339;51.378;0.094;2022-12-05T07:14:17;5.50;87.90
26254;DHT22;53339;51.378;0.094;2022-12-05T07:17:05;5.60;88.00
26254;DHT22;53339;51.378;0.094;2022-12-05T07:19:33;5.60;87.50
26254;DHT22;53339;51.378;0.094;2022-12-05T07:22:00;5.60;87.50
26254;DHT22;53339;51.378;0.094;2022-12-05T07:24:28;5.60;87.80
26254;DHT22;53339;51.378;0.094;2022-12-05T07:26:56;5.70;87.70
26254;DHT22;53339;51.378;0.094;2022-12-05T07:29:23;5.70;87.20
26254;DHT22;53339;51.378;0.094;2022-12-05T07:31:52;5.60;87.10
26254;DHT22;53339;51.378;0.094;2022-12-05T07:34:20;5.60;87.50
26254;DHT22;53339;51.378;0.094;2022-12-05T07:36:48;5.70;87.60
26254;DHT22;53339;51.378;0.094;2022-12-05T07:39:15;5.70;87.20
26254;DHT22;53339;51.378;0.094;2022-12-05T07:41:43;5.70;87.10
26254;DHT22;53339;51.378;0.094;2022-12-05T07:44:15;5.70;87.30
26254;DHT22;53339;51.378;0.094;2022-12-05T07:46:43;5.70;87.20
26254;DHT22;53339;51.378;0.094;2022-12-05T07:49:10;5.70;86.50
26254;DHT22;53339;51.378;0.094;2022-12-05T07:51:38;5.60;86.50
26254;DHT22;53339;51.378;0.094;2022-12-05T07:54:05;5.60;87.00
26254;DHT22;53339;51.378;0.094;2022-12-05T07:56:33;5.70;87.10
26254;DHT22;53339;51.378;0.094;2022-12-05T07:59:01;5.70;86.80
26254;DHT22;53339;51.378;0.094;2022-12-05T08:01:29;5.60;86.60
26254;DHT22;53339;51.378;0.094;2022-12-05T08:03:58;5.60;86.90
26254;DHT22;53339;51.378;0.094;2022-12-05T08:06:27;5.60;87.00
26254;DHT22;53339;51.378;0.094;2022-12-05T08:08:56;5.60;86.50
26254;DHT22;53339;51.378;0.094;2022-12-05T08:11:29;5.50;86.40
26254;DHT22;53339;51.378;0.094;2022-12-05T08:13:57;5.40;86.80
26254;DHT22;53339;51.378;0.094;2022-12-05T08:16:27;5.40;86.80
26254;DHT22;53339;51.378;0.094;2022-12-05T08:19:01;5.30;86.30
26254;DHT22;53339;51.378;0.094;2022-12-05T08:21:29;5.20;86.60
26254;DHT22;53339;51.378;0.094;2022-12-05T08:23:57;5.30;87.10
26254;DHT22;53339;51.378;0.094;2022-12-05T08:26:29;5.40;87.20
26254;DHT22;53339;51.378;0.094;2022-12-05T08:29:04;5.40;86.90
26254;DHT22;53339;51.378;0.094;2022-12-05T08:31:34;5.40;86.70
26254;DHT22;53339;51.378;0.094;2022-12-05T08:34:02;5.40;87.10
26254;DHT22;53339;51.378;0.094;2022-12-05T08:36:30;5.50;87.10
26254;DHT22;53339;51.378;0.094;2022-12-05T08:38:59;5.50;86.80
26254;DHT22;53339;51.378;0.094;2022-12-05T08:41:27;5.40;86.80
26254;DHT22;53339;51.378;0.094;2022-12-05T08:44:02;5.50;87.10
26254;DHT22;53339;51.378;0.094;2022-12-05T08:46:31;5.60;87.10
26254;DHT22;53339;51.378;0.094;2022-12-05T08:48:59;5.50;86.80
26254;DHT22;53339;51.378;0.094;2022-12-05T08:51:26;5.50;86.90
26254;DHT22;53339;51.378;0.094;2022-12-05T08:53:54;5.60;87.20
26254;DHT22;53339;51.378;0.094;2022-12-05T08:56:23;5.60;87.20
26254;DHT22;53339;51.378;0.094;2022-12-05T08:58:54;5.60;86.60
26254;DHT22;53339;51.378;0.094;2022-12-05T09:01:29;5.50;86.70
26254;DHT22;53339;51.378;0.094;2022-12-05T09:03:59;5.60;87.10
26254;DHT22;53339;51.378;0.094;2022-12-05T09:06:28;5.60;87.20
26254;DHT22;53339;51.378;0.094;2022-12-05T09:08:58;5.60;86.80
26254;DHT22;53339;51.378;0.094;2022-12-05T09:11:28;5.60;86.80
26254;DHT22;53339;51.378;0.094;2022-12-05T09:13:58;5.60;87.20
26254;DHT22;53339;51.378;0.094;2022-12-05T09:16:28;5.70;87.30
26254;DHT22;53339;51.378;0.094;2022-12-05T09:19:03;5.70;86.90
26254;DHT22;53339;51.378;0.094;2022-12-05T09:21:31;5.60;86.70
26254;DHT22;53339;51.378;0.094;2022-12-05T09:23:59;5.70;87.20
26254;DHT22;53339;51.378;0.094;2022-12-05T09:26:28;5.70;87.20
26254;DHT22;53339;51.378;0.094;2022-12-05T09:28:56;5.70;87.00
26254;DHT22;53339;51.378;0.094;2022-12-05T09:31:25;5.70;86.80
26254;DHT22;53339;51.378;0.094;2022-12-05T09:33:57;5.80;87.20
26254;DHT22;53339;51.378;0.094;2022-12-05T09:36:27;5.90;87.20
26254;DHT22;53339;51.378;0.094;2022-12-05T09:38:58;5.90;87.00
26254;DHT22;53339;51.378;0.094;2022-12-05T09:50:12;5.90;86.30
26254;DHT22;53339;51.378;0.094;2022-12-05T10:00:53;5.90;86.40
26254;DHT22;53339;51.378;0.094;2022-12-05T10:03:43;5.90;86.80
26254;DHT22;53339;51.378;0.094;2022-12-05T10:06:17;6.00;87.10
26254;DHT22;53339;51.378;0.094;2022-12-05T10:15:04;5.90;87.10
26254;DHT22;53339;51.378;0.094;2022-12-05T10:17:38;6.00;87.00
26254;DHT22;53339;51.378;0.094;2022-12-05T10:20:15;6.00;86.50
26254;DHT22;53339;51.378;0.094;2022-12-05T10:23:04;6.00;86.80
26254;DHT22;53339;51.378;0.094;2022-12-05T10:25:33;6.10;87.10
26254;DHT22;53339;51.378;0.094;2022-12-05T10:28:08;6.10;86.70
26254;DHT22;53339;51.378;0.094;2022-12-05T10:30:38;6.10;86.50
26254;DHT22;53339;51.378;0.094;2022-12-05T10:33:37;6.10;86.90
26254;DHT22;53339;51.378;0.094;2022-12-05T10:36:12;6.20;87.10
26254;DHT22;53339;51.378;0.094;2022-12-05T10:38:42;6.30;86.30
26254;DHT22;53339;51.378;0.094;2022-12-05T10:41:12;6.20;86.30
26254;DHT22;53339;51.378;0.094;2022-12-05T10:43:42;6.20;86.80
26254;DHT22;53339;51.378;0.094;2022-12-05T10:46:12;6.30;86.90
26254;DHT22;53339;51.378;0.094;2022-12-05T10:48:43;6.30;86.20
26254;DHT22;53339;51.378;0.094;2022-12-05T10:51:17;6.30;86.10
26254;DHT22;53339;51.378;0.094;2022-12-05T10:53:49;6.30;86.60
26254;DHT22;53339;51.378;0.094;2022-12-05T10:56:39;6.40;86.70
26254;DHT22;53339;51.378;0.094;2022-12-05T10:59:10;6.40;86.00
26254;DHT22;53339;51.378;0.094;2022-12-05T11:01:46;6.40;86.00
26254;DHT22;53339;51.378;0.094;2022-12-05T11:07:09;6.60;86.60
26254;DHT22;53339;51.378;0.094;2022-12-05T11:09:48;6.60;85.90
26254;DHT22;53339;51.378;0.094;2022-12-05T11:12:18;6.60;86.20
26254;DHT22;53339;51.378;0.094;2022-12-05T11:17:37;6.70;86.30
26254;DHT22;53339;51.378;0.094;2022-12-05T11:22:54;6.70;86.10
26254;DHT22;53339;51.378;0.094;2022-12-05T11:27:53;6.80;85.80
26254;DHT22;53339;51.378;0.094;2022-12-05T11:30:28;6.70;85.40
26254;DHT22;53339;51.378;0.094;2022-12-05T11:33:19;6.70;85.90
26254;DHT22;53339;51.378;0.094;2022-12-05T11:35:49;6.80;86.20
26254;DHT22;53339;51.378;0.094;2022-12-05T11:38:20;6.80;85.80
26254;DHT22;53339;51.378;0.094;2022-12-05T11:43:27;6.70;86.00
26254;DHT22;53339;51.378;0.094;2022-12-05T11:46:07;6.80;86.20
26254;DHT22;53339;51.378;0.094;2022-12-05T11:54:39;6.80;86.30
26254;DHT22;53339;51.378;0.094;2022-12-05T11:58:05;6.90;86.10
26254;DHT22;53339;51.378;0.094;2022-12-05T12:17:54;7.30;86.00
26254;DHT22;53339;51.378;0.094;2022-12-05T12:23:27;7.30;86.00
26254;DHT22;53339;51.378;0.094;2022-12-05T12:26:11;7.40;86.20
26254;DHT22;53339;51.378;0.094;2022-12-05T12:29:48;7.50;85.80
26254;DHT22;53339;51.378;0.094;2022-12-05T12:37:24;7.60;86.00
26254;DHT22;53339;51.378;0.094;2022-12-05T12:43:06;7.60;85.80
26254;DHT22;53339;51.378;0.094;2022-12-05T12:46:22;7.60;86.00
26254;DHT22;53339;51.378;0.094;2022-12-05T12:52:00;7.50;85.50
26254;DHT22;53339;51.378;0.094;2022-12-05T12:57:36;7.50;86.00
26254;DHT22;53339;51.378;0.094;2022-12-05T13:02:55;7.30;86.00
26254;DHT22;53339;51.378;0.094;2022-12-05T13:05:44;7.30;86.50
26254;DHT22;53339;51.378;0.094;2022-12-05T13:08:26;7.40;86.50
26254;DHT22;53339;51.378;0.094;2022-12-05T13:10:55;7.40;86.20
26254;DHT22;53339;51.378;0.094;2022-12-05T13:13:29;7.40;86.70
26254;DHT22;53339;51.378;0.094;2022-12-05T13:16:04;7.50;86.70
26254;DHT22;53339;51.378;0.094;2022-12-05T13:18:34;7.60;86.20
26254;DHT22;53339;51.378;0.094;2022-12-05T13:21:06;7.50;86.00
26254;DHT22;53339;51.378;0.094;2022-12-05T13:23:47;7.50;86.50
26254;DHT22;53339;51.378;0.094;2022-12-05T13:26:16;7.50;86.70
26254;DHT22;53339;51.378;0.094;2022-12-05T13:28:58;7.50;86.50
26254;DHT22;53339;51.378;0.094;2022-12-05T13:31:38;7.50;86.30
26254;DHT22;53339;51.378;0.094;2022-12-05T13:34:51;7.50;86.70
26254;DHT22;53339;51.378;0.094;2022-12-05T13:37:25;7.50;86.80
26254;DHT22;53339;51.378;0.094;2022-12-05T13:40:29;7.40;86.40
26254;DHT22;53339;51.378;0.094;2022-12-05T13:43:23;7.40;86.70
26254;DHT22;53339;51.378;0.094;2022-12-05T13:46:09;7.60;87.10
26254;DHT22;53339;51.378;0.094;2022-12-05T13:48:40;7.60;86.70
26254;DHT22;53339;51.378;0.094;2022-12-05T13:51:21;7.60;86.40
26254;DHT22;53339;51.378;0.094;2022-12-05T13:57:01;7.70;86.60
26254;DHT22;53339;51.378;0.094;2022-12-05T14:00:00;7.70;86.30
26254;DHT22;53339;51.378;0.094;2022-12-05T14:07:48;7.70;86.00
26254;DHT22;53339;51.378;0.094;2022-12-05T14:12:59;7.60;86.00
26254;DHT22;53339;51.378;0.094;2022-12-05T14:15:33;7.70;86.40
26254;DHT22;53339;51.378;0.094;2022-12-05T14:21:16;7.70;85.90
26254;DHT22;53339;51.378;0.094;2022-12-05T14:32:31;7.90;86.10
26254;DHT22;53339;51.378;0.094;2022-12-05T14:37:36;7.90;86.00
26254;DHT22;53339;51.378;0.094;2022-12-05T14:42:53;7.70;85.70
26254;DHT22;53339;51.378;0.094;2022-12-05T14:45:26;7.70;85.90
26254;DHT22;53339;51.378;0.094;2022-12-05T14:47:57;7.60;85.70
26254;DHT22;53339;51.378;0.094;2022-12-05T14:58:17;7.40;86.10
26254;DHT22;53339;51.378;0.094;2022-12-05T15:00:55;7.30;85.60
26254;DHT22;53339;51.378;0.094;2022-12-05T15:03:34;7.30;86.20
26254;DHT22;53339;51.378;0.094;2022-12-05T15:06:05;7.40;86.40
26254;DHT22;53339;51.378;0.094;2022-12-05T15:08:55;7.40;86.10
26254;DHT22;53339;51.378;0.094;2022-12-05T15:11:44;7.40;86.10
26254;DHT22;53339;51.378;0.094;2022-12-05T15:14:18;7.40;86.50
26254;DHT22;53339;51.378;0.094;2022-12-05T15:16:49;7.40;86.60
26254;DHT22;53339;51.378;0.094;2022-12-05T15:19:24;7.40;86.10
26254;DHT22;53339;51.378;0.094;2022-12-05T15:21:59;7.30;86.20
26254;DHT22;53339;51.378;0.094;2022-12-05T15:24:36;7.40;86.50
26254;DHT22;53339;51.378;0.094;2022-12-05T15:27:07;7.50;86.50
26254;DHT22;53339;51.378;0.094;2022-12-05T15:29:39;7.50;86.20
26254;DHT22;53339;51.378;0.094;2022-12-05T15:34:52;7.40;86.50
26254;DHT22;53339;51.378;0.094;2022-12-05T15:37:38;7.40;86.50
26254;DHT22;53339;51.378;0.094;2022-12-05T15:40:13;7.30;85.90
26254;DHT22;53339;51.378;0.094;2022-12-05T15:42:43;7.20;86.10
26254;DHT22;53339;51.378;0.094;2022-12-05T15:47:44;7.20;86.60
26254;DHT22;53339;51.378;0.094;2022-12-05T15:55:37;7.10;86.90
26254;DHT22;53339;51.378;0.094;2022-12-05T16:01:12;7.00;86.40
26254;DHT22;53339;51.378;0.094;2022-12-05T16:06:51;7.10;87.10
26254;DHT22;53339;51.378;0.094;2022-12-05T16:09:27;7.10;86.80
26254;DHT22;53339;51.378;0.094;2022-12-05T16:11:59;7.10;86.90
26254;DHT22;53339;51.378;0.094;2022-12-05T16:14:37;7.10;87.10
26254;DHT22;53339;51.378;0.094;2022-12-05T16:17:28;7.20;87.10
26254;DHT22;53339;51.378;0.094;2022-12-05T16:20:10;7.10;86.60
26254;DHT22;53339;51.378;0.094;2022-12-05T16:22:43;7.10;86.70
26254;DHT22;53339;51.378;0.094;2022-12-05T16:25:20;7.10;87.10
26254;DHT22;53339;51.378;0.094;2022-12-05T16:28:01;7.10;87.00
26254;DHT22;53339;51.378;0.094;2022-12-05T16:30:30;7.00;86.70
26254;DHT22;53339;51.378;0.094;2022-12-05T16:33:01;6.90;86.90
26254;DHT22;53339;51.378;0.094;2022-12-05T16:40:57;6.90;86.60
26254;DHT22;53339;51.378;0.094;2022-12-05T16:48:44;6.90;87.30
26254;DHT22;53339;51.378;0.094;2022-12-05T16:51:19;6.90;87.10
26254;DHT22;53339;51.378;0.094;2022-12-05T16:53:49;6.90;87.40
26254;DHT22;53339;51.378;0.094;2022-12-05T16:58:50;7.00;87.10
26254;DHT22;53339;51.378;0.094;2022-12-05T17:01:23;6.90;86.80
26254;DHT22;53339;51.378;0.094;2022-12-05T17:03:52;6.90;87.10
26254;DHT22;53339;51.378;0.094;2022-12-05T17:06:21;6.90;87.30
26254;DHT22;53339;51.378;0.094;2022-12-05T17:08:51;6.90;87.00
26254;DHT22;53339;51.378;0.094;2022-12-05T17:11:29;6.90;86.90
26254;DHT22;53339;51.378;0.094;2022-12-05T17:13:58;6.90;87.30
26254;DHT22;53339;51.378;0.094;2022-12-05T17:16:26;6.90;87.50
26254;DHT22;53339;51.378;0.094;2022-12-05T17:18:54;6.90;87.30
26254;DHT22;53339;51.378;0.094;2022-12-05T17:21:24;6.90;87.20
26254;DHT22;53339;51.378;0.094;2022-12-05T17:23:53;6.90;87.50
26254;DHT22;53339;51.378;0.094;2022-12-05T17:26:21;7.00;87.60
26254;DHT22;53339;51.378;0.094;2022-12-05T17:28:49;6.90;87.40
26254;DHT22;53339;51.378;0.094;2022-12-05T17:31:22;6.90;87.20
26254;DHT22;53339;51.378;0.094;2022-12-05T17:33:51;6.80;87.50
26254;DHT22;53339;51.378;0.094;2022-12-05T17:36:19;6.80;87.70
26254;DHT22;53339;51.378;0.094;2022-12-05T17:38:47;6.80;87.70
26254;DHT22;53339;51.378;0.094;2022-12-05T17:41:17;6.70;87.50
26254;DHT22;53339;51.378;0.094;2022-12-05T17:43:46;6.70;87.90
26254;DHT22;53339;51.378;0.094;2022-12-05T17:46:19;6.80;88.10
26254;DHT22;53339;51.378;0.094;2022-12-05T17:48:48;6.80;87.90
26254;DHT22;53339;51.378;0.094;2022-12-05T17:51:17;6.70;87.60
26254;DHT22;53339;51.378;0.094;2022-12-05T17:53:45;6.70;88.00
26254;DHT22;53339;51.378;0.094;2022-12-05T17:56:14;6.80;88.30
26254;DHT22;53339;51.378;0.094;2022-12-05T17:58:41;6.80;88.10
26254;DHT22;53339;51.378;0.094;2022-12-05T18:01:18;6.80;87.90
26254;DHT22;53339;51.378;0.094;2022-12-05T18:03:47;6.80;88.20
26254;DHT22;53339;51.378;0.094;2022-12-05T18:06:15;6.80;88.30
26254;DHT22;53339;51.378;0.094;2022-12-05T18:08:43;6.90;88.20
26254;DHT22;53339;51.378;0.094;2022-12-05T18:11:13;6.80;87.80
26254;DHT22;53339;51.378;0.094;2022-12-05T18:13:40;6.80;88.10
26254;DHT22;53339;51.378;0.094;2022-12-05T18:16:08;6.90;88.30
26254;DHT22;53339;51.378;0.094;2022-12-05T18:18:36;6.90;88.30
26254;DHT22;53339;51.378;0.094;2022-12-05T18:21:11;6.90;88.00
26254;DHT22;53339;51.378;0.094;2022-12-05T18:23:39;6.90;88.10
26254;DHT22;53339;51.378;0.094;2022-12-05T18:26:09;6.90;88.20
26254;DHT22;53339;51.378;0.094;2022-12-05T18:28:37;6.90;88.00
26254;DHT22;53339;51.378;0.094;2022-12-05T18:31:13;6.80;87.70
26254;DHT22;53339;51.378;0.094;2022-12-05T18:33:43;6.80;87.90
26254;DHT22;53339;51.378;0.094;2022-12-05T18:36:16;6.80;88.00
26254;DHT22;53339;51.378;0.094;2022-12-05T18:38:50;6.90;87.90
26254;DHT22;53339;51.378;0.094;2022-12-05T18:41:18;6.80;87.50
26254;DHT22;53339;51.378;0.094;2022-12-05T18:43:46;6.70;87.80
26254;DHT22;53339;51.378;0.094;2022-12-05T18:46:14;6.80;88.00
26254;DHT22;53339;51.378;0.094;2022-12-05T18:48:41;6.80;87.90
26254;DHT22;53339;51.378;0.094;2022-12-05T18:51:15;6.70;87.70
26254;DHT22;53339;51.378;0.094;2022-12-05T18:53:43;6.70;87.80
26254;DHT22;53339;51.378;0.094;2022-12-05T18:56:23;6.70;87.90
26254;DHT22;53339;51.378;0.094;2022-12-05T18:59:04;6.70;87.60
26254;DHT22;53339;51.378;0.094;2022-12-05T19:01:34;6.60;87.40
26254;DHT22;53339;51.378;0.094;2022-12-05T19:04:03;6.60;87.70
26254;DHT22;53339;51.378;0.094;2022-12-05T19:06:32;6.60;88.00
26254;DHT22;53339;51.378;0.094;2022-12-05T19:09:05;6.60;87.70
26254;DHT22;53339;51.378;0.094;2022-12-05T19:11:34;6.50;87.40
26254;DHT22;53339;51.378;0.094;2022-12-05T19:14:03;6.50;87.70
26254;DHT22;53339;51.378;0.094;2022-12-05T19:16:32;6.60;88.00
26254;DHT22;53339;51.378;0.094;2022-12-05T19:19:03;6.60;87.70
26254;DHT22;53339;51.378;0.094;2022-12-05T19:21:32;6.50;87.50
26254;DHT22;53339;51.378;0.094;2022-12-05T19:24:01;6.50;87.80
26254;DHT22;53339;51.378;0.094;2022-12-05T19:26:30;6.60;88.00
26254;DHT22;53339;51.378;0.094;2022-12-05T19:28:58;6.60;87.70
26254;DHT22;53339;51.378;0.094;2022-12-05T19:31:27;6.60;87.50
26254;DHT22;53339;51.378;0.094;2022-12-05T19:33:58;6.50;87.70